createdAt,value
2018-06-11T00:00:08.944Z,93.20
2018-06-11T00:01:08.884Z,93.49
2018-06-11T00:02:08.807Z,93.59
2018-06-11T00:03:08.791Z,93.49
2018-06-11T00:04:08.728Z,93.20
2018-06-11T00:05:08.688Z,93.30
2018-06-11T00:06:08.650Z,93.68
2018-06-11T00:07:08.607Z,93.87
2018-06-11T00:08:08.570Z,93.87
2018-06-11T00:09:08.527Z,93.59
2018-06-11T00:10:08.486Z,93.87
2018-06-11T00:11:08.463Z,93.97
2018-06-11T00:12:08.433Z,94.07
2018-06-11T00:13:08.371Z,93.97
2018-06-11T00:14:08.351Z,93.82
2018-06-11T00:15:08.311Z,94.45
2018-06-11T00:16:08.264Z,94.69
2018-06-11T00:17:08.214Z,94.98
2018-06-11T00:18:08.180Z,94.69
2018-06-11T00:19:08.143Z,94.69
2018-06-11T00:20:08.083Z,94.59
2018-06-11T00:21:08.042Z,94.49
2018-06-11T00:22:07.999Z,95.17
2018-06-11T00:23:07.959Z,95.46
2018-06-11T00:24:07.923Z,94.69
2018-06-11T00:25:07.882Z,94.69
2018-06-11T00:26:07.837Z,94.88
2018-06-11T00:27:07.798Z,95.17
2018-06-11T00:28:07.756Z,95.26
2018-06-11T00:29:07.726Z,95.36
2018-06-11T00:30:07.678Z,95.17
2018-06-11T00:31:07.635Z,95.55
2018-06-11T00:32:07.596Z,95.55
2018-06-11T00:33:07.560Z,95.65
2018-06-11T00:34:07.518Z,95.65
2018-06-11T00:35:07.473Z,95.55
2018-06-11T00:36:07.433Z,95.84
2018-06-11T00:37:07.396Z,95.75
2018-06-11T00:38:07.356Z,95.94
2018-06-11T00:39:07.310Z,95.65
2018-06-11T00:40:07.308Z,94.98
2018-06-11T00:41:07.252Z,95.36
2018-06-11T00:42:07.207Z,95.75
2018-06-11T00:43:07.153Z,95.36
2018-06-11T00:44:07.108Z,95.65
2018-06-11T00:45:07.068Z,95.94
2018-06-11T00:46:07.031Z,95.75
2018-06-11T00:47:06.985Z,95.65
2018-06-11T00:48:06.946Z,95.55
2018-06-11T00:49:06.905Z,95.65
2018-06-11T00:50:06.864Z,95.65
2018-06-11T00:51:06.825Z,95.75
2018-06-11T00:52:06.784Z,95.46
2018-06-11T00:53:06.741Z,95.36
2018-06-11T00:54:06.701Z,95.55
2018-06-11T00:55:06.661Z,95.65
2018-06-11T00:56:06.620Z,95.17
2018-06-11T00:57:06.589Z,94.88
2018-06-11T00:58:06.538Z,94.88
2018-06-11T00:59:06.511Z,94.79
2018-06-11T01:00:06.458Z,94.69
2018-06-11T01:01:06.417Z,94.40
2018-06-11T01:02:06.378Z,94.02
2018-06-11T01:03:06.343Z,94.40
2018-06-11T01:04:06.298Z,94.02
2018-06-11T01:05:06.254Z,93.82
2018-06-11T01:06:06.213Z,94.12
2018-06-11T01:07:06.173Z,93.63
2018-06-11T01:08:06.174Z,93.63
2018-06-11T01:09:06.094Z,94.31
2018-06-11T01:10:06.051Z,94.02
2018-06-11T01:11:06.011Z,93.82
2018-06-11T01:12:05.971Z,93.63
2018-06-11T01:13:05.930Z,93.63
2018-06-11T01:14:05.888Z,93.92
2018-06-11T01:15:05.847Z,93.44
2018-06-11T01:16:05.828Z,94.02
2018-06-11T01:17:05.781Z,93.82
2018-06-11T01:18:05.735Z,93.35
2018-06-11T01:19:05.691Z,93.35
2018-06-11T01:20:05.646Z,93.06
2018-06-11T01:21:05.605Z,93.44
2018-06-11T01:22:05.563Z,93.44
2018-06-11T01:23:05.527Z,93.63
2018-06-11T01:24:05.482Z,94.12
2018-06-11T01:25:05.445Z,94.12
2018-06-11T01:26:05.400Z,93.92
2018-06-11T01:27:05.366Z,93.59
2018-06-11T01:28:05.320Z,93.97
2018-06-11T01:29:05.281Z,93.88
2018-06-11T01:30:05.306Z,94.07
2018-06-11T01:31:05.196Z,94.74
2018-06-11T01:32:05.167Z,94.35
2018-06-11T01:33:05.120Z,94.07
2018-06-11T01:34:05.076Z,93.97
2018-06-11T01:35:05.034Z,94.17
2018-06-11T01:36:04.994Z,94.07
2018-06-11T01:37:04.953Z,94.54
2018-06-11T01:38:04.914Z,94.74
2018-06-11T01:39:04.871Z,94.45
2018-06-11T01:40:04.829Z,94.45
2018-06-11T01:41:04.790Z,94.35
2018-06-11T01:42:04.748Z,94.35
2018-06-11T01:43:04.711Z,94.84
2018-06-11T01:44:04.667Z,95.12
2018-06-11T01:45:04.628Z,95.70
2018-06-11T01:46:04.590Z,95.60
2018-06-11T01:47:04.547Z,95.60
2018-06-11T01:48:04.504Z,95.70
2018-06-11T01:49:04.468Z,96.18
2018-06-11T01:50:04.422Z,96.27
2018-06-11T01:51:04.380Z,96.56
2018-06-11T01:52:04.355Z,97.23
2018-06-11T01:53:04.300Z,96.27
2018-06-11T01:54:04.269Z,96.47
2018-06-11T01:55:04.217Z,97.14
2018-06-11T01:56:04.178Z,96.27
2018-06-11T01:57:04.138Z,96.75
2018-06-11T01:58:04.098Z,97.14
2018-06-11T01:59:04.054Z,97.04
2018-06-11T02:00:04.021Z,96.66
2018-06-11T02:01:03.974Z,96.08
2018-06-11T02:02:03.931Z,96.08
2018-06-11T02:04:03.856Z,95.89
2018-06-11T02:05:03.814Z,96.08
2018-06-11T02:06:03.769Z,96.47
2018-06-11T02:07:03.728Z,96.56
2018-06-11T02:08:03.692Z,96.37
2018-06-11T02:09:03.644Z,96.75
2018-06-11T02:10:03.604Z,97.14
2018-06-11T02:11:03.563Z,96.85
2018-06-11T02:12:03.525Z,96.18
2018-06-11T02:13:03.487Z,95.89
2018-06-11T02:14:03.440Z,95.51
2018-06-11T02:15:03.400Z,96.37
2018-06-11T02:16:03.358Z,95.31
2018-06-11T02:17:03.319Z,95.26
2018-06-11T02:18:03.275Z,95.46
2018-06-11T02:19:03.235Z,95.65
2018-06-11T02:20:03.193Z,96.18
2018-06-11T02:21:03.154Z,96.13
2018-06-11T02:22:03.117Z,95.84
2018-06-11T02:23:03.072Z,95.56
2018-06-11T02:24:03.030Z,95.36
2018-06-11T02:25:02.989Z,95.46
2018-06-11T02:26:02.948Z,95.56
2018-06-11T02:27:02.912Z,95.56
2018-06-11T02:28:02.866Z,95.75
2018-06-11T02:29:02.829Z,95.94
2018-06-11T02:30:02.786Z,95.56
2018-06-11T02:31:02.746Z,95.46
2018-06-11T02:32:02.704Z,95.46
2018-06-11T02:33:02.661Z,95.56
2018-06-11T02:34:02.619Z,95.75
2018-06-11T02:35:02.577Z,95.75
2018-06-11T02:36:02.542Z,95.65
2018-06-11T02:37:02.498Z,95.84
2018-06-11T02:38:02.456Z,95.36
2018-06-11T02:39:02.413Z,95.84
2018-06-11T02:40:02.374Z,95.65
2018-06-11T02:41:02.335Z,95.56
2018-06-11T02:42:02.290Z,96.03
2018-06-11T02:43:02.249Z,96.22
2018-06-11T02:44:02.208Z,96.42
2018-06-11T02:45:02.169Z,95.65
2018-06-11T02:46:02.126Z,95.46
2018-06-11T02:47:02.084Z,95.84
2018-06-11T02:48:02.045Z,95.46
2018-06-11T02:49:02.027Z,95.75
2018-06-11T02:50:01.961Z,95.56
2018-06-11T02:51:01.920Z,96.13
2018-06-11T02:52:01.879Z,96.03
2018-06-11T02:53:01.843Z,96.22
2018-06-11T02:54:01.799Z,96.03
2018-06-11T02:55:01.756Z,95.46
2018-06-11T02:56:01.713Z,95.84
2018-06-11T02:57:01.675Z,96.80
2018-06-11T02:58:01.634Z,95.84
2018-06-11T02:59:01.591Z,95.46
2018-06-11T03:00:01.551Z,96.22
2018-06-11T03:01:01.509Z,95.94
2018-06-11T03:02:01.468Z,96.03
2018-06-11T03:03:01.430Z,95.94
2018-06-11T03:04:01.386Z,96.03
2018-06-11T03:05:01.352Z,95.46
2018-06-11T03:06:01.303Z,95.56
2018-06-11T03:07:01.263Z,96.03
2018-06-11T03:08:01.222Z,96.22
2018-06-11T03:09:01.180Z,95.94
2018-06-11T03:10:01.136Z,95.84
2018-06-11T03:11:01.101Z,96.13
2018-06-11T03:12:01.057Z,96.51
2018-06-11T03:13:01.016Z,96.42
2018-06-11T03:14:00.975Z,96.32
2018-06-11T03:15:00.933Z,96.42
2018-06-11T03:16:00.892Z,95.84
2018-06-11T03:17:00.850Z,95.84
2018-06-11T03:18:00.813Z,96.03
2018-06-11T03:19:00.767Z,96.61
2018-06-11T03:20:00.726Z,96.42
2018-06-11T03:21:00.685Z,96.22
2018-06-11T03:22:00.646Z,96.70
2018-06-11T03:23:00.603Z,95.94
2018-06-11T03:24:00.561Z,96.22
2018-06-11T03:25:00.523Z,96.22
2018-06-11T03:26:00.484Z,95.84
2018-06-11T03:27:00.439Z,95.94
2018-06-11T03:28:00.400Z,96.42
2018-06-11T03:29:00.358Z,96.89
2018-06-11T03:30:00.315Z,96.61
2018-06-11T03:31:00.277Z,96.03
2018-06-11T03:32:00.241Z,96.22
2018-06-11T03:33:00.199Z,95.94
2018-06-11T03:34:00.154Z,95.46
2018-06-11T03:35:00.110Z,95.56
2018-06-11T03:36:00.144Z,95.75
2018-06-11T03:37:00.097Z,95.65
2018-06-11T03:37:59.987Z,95.26
2018-06-11T03:38:59.948Z,96.03
2018-06-11T03:39:59.902Z,95.46
2018-06-11T03:40:59.863Z,95.46
2018-06-11T03:41:59.820Z,95.65
2018-06-11T03:42:59.781Z,95.65
2018-06-11T03:43:59.740Z,94.89
2018-06-11T03:44:59.697Z,95.26
2018-06-11T03:45:59.654Z,95.07
2018-06-11T03:46:59.620Z,94.89
2018-06-11T03:47:59.576Z,94.59
2018-06-11T03:48:59.531Z,95.75
2018-06-11T03:49:59.492Z,95.46
2018-06-11T03:50:59.453Z,95.84
2018-06-11T03:51:59.409Z,94.31
2018-06-11T03:52:59.367Z,95.07
2018-06-11T03:53:59.330Z,94.69
2018-06-11T03:54:59.286Z,94.40
2018-06-11T03:55:59.247Z,94.59
2018-06-11T03:56:59.203Z,94.69
2018-06-11T03:57:59.162Z,94.79
2018-06-11T03:58:59.124Z,94.21
2018-06-11T03:59:59.084Z,94.98
2018-06-11T04:00:59.041Z,94.12
2018-06-11T04:01:58.998Z,93.93
2018-06-11T04:02:58.960Z,93.54
2018-06-11T04:03:58.922Z,93.83
2018-06-11T04:04:58.874Z,93.83
2018-06-11T04:05:58.836Z,93.93
2018-06-11T04:06:58.791Z,93.83
2018-06-11T04:07:58.752Z,93.93
2018-06-11T04:08:58.710Z,93.44
2018-06-11T04:09:58.668Z,93.54
2018-06-11T04:10:58.678Z,93.73
2018-06-11T04:11:58.588Z,93.73
2018-06-11T04:12:58.557Z,93.83
2018-06-11T04:13:58.506Z,93.26
2018-06-11T04:14:58.468Z,93.93
2018-06-11T04:15:58.427Z,93.54
2018-06-11T04:16:58.386Z,93.49
2018-06-11T04:17:58.340Z,93.63
2018-06-11T04:18:58.300Z,93.93
2018-06-11T04:19:58.260Z,94.17
2018-06-11T04:20:58.220Z,93.88
2018-06-11T04:21:58.177Z,93.68
2018-06-11T04:22:58.136Z,93.78
2018-06-11T04:23:58.095Z,93.68
2018-06-11T04:24:58.054Z,93.40
2018-06-11T04:25:58.014Z,92.82
2018-06-11T04:26:57.973Z,92.82
2018-06-11T04:27:57.928Z,92.72
2018-06-11T04:28:57.890Z,93.11
2018-06-11T04:29:57.855Z,92.34
2018-06-11T04:30:57.810Z,92.44
2018-06-11T04:31:57.767Z,92.82
2018-06-11T04:32:57.732Z,92.82
2018-06-11T04:33:57.683Z,92.34
2018-06-11T04:34:57.643Z,92.05
2018-06-11T04:35:57.610Z,92.72
2018-06-11T04:36:57.563Z,92.05
2018-06-11T04:37:57.519Z,92.24
2018-06-11T04:38:57.477Z,92.24
2018-06-11T04:39:57.441Z,92.63
2018-06-11T04:40:57.395Z,92.44
2018-06-11T04:41:57.357Z,91.28
2018-06-11T04:42:57.320Z,90.52
2018-06-11T04:43:57.275Z,90.81
2018-06-11T04:44:57.232Z,90.61
2018-06-11T04:45:57.193Z,90.52
2018-06-11T04:46:57.149Z,90.61
2018-06-11T04:47:57.109Z,91.38
2018-06-11T04:48:57.069Z,91.19
2018-06-11T04:49:57.030Z,90.71
2018-06-11T04:50:56.984Z,90.71
2018-06-11T04:51:56.946Z,90.42
2018-06-11T04:52:56.905Z,90.23
2018-06-11T04:53:56.862Z,90.23
2018-06-11T04:54:56.825Z,89.85
2018-06-11T04:55:56.790Z,90.75
2018-06-11T04:56:56.741Z,90.71
2018-06-11T04:57:56.706Z,90.66
2018-06-11T04:58:56.659Z,90.37
2018-06-11T04:59:56.621Z,90.66
2018-06-11T05:00:56.579Z,90.47
2018-06-11T05:01:56.538Z,90.18
2018-06-11T05:02:56.498Z,90.56
2018-06-11T05:03:56.458Z,89.89
2018-06-11T05:04:56.414Z,90.18
2018-06-11T05:05:56.373Z,90.18
2018-06-11T05:06:56.334Z,90.08
2018-06-11T05:07:56.299Z,89.79
2018-06-11T05:08:56.253Z,89.79
2018-06-11T05:09:56.211Z,89.70
2018-06-11T05:10:56.170Z,89.51
2018-06-11T05:11:56.131Z,89.12
2018-06-11T05:12:56.095Z,89.22
2018-06-11T05:13:56.048Z,88.93
2018-06-11T05:14:56.008Z,88.55
2018-06-11T05:15:55.967Z,88.74
2018-06-11T05:16:55.928Z,88.84
2018-06-11T05:17:55.887Z,88.84
2018-06-11T05:18:55.843Z,89.03
2018-06-11T05:19:55.803Z,88.65
2018-06-11T05:20:55.764Z,88.84
2018-06-11T05:21:55.725Z,88.84
2018-06-11T05:22:55.696Z,88.35
2018-06-11T05:23:55.642Z,88.17
2018-06-11T05:24:55.600Z,88.07
2018-06-11T05:25:55.564Z,88.26
2018-06-11T05:26:55.520Z,88.07
2018-06-11T05:27:55.479Z,87.98
2018-06-11T05:28:55.441Z,87.54
2018-06-11T05:29:55.401Z,87.54
2018-06-11T05:30:55.359Z,88.40
2018-06-11T05:31:55.327Z,88.31
2018-06-11T05:32:55.278Z,88.11
2018-06-11T05:33:55.234Z,87.92
2018-06-11T05:34:55.273Z,88.49
2018-06-11T05:35:55.156Z,87.92
2018-06-11T05:36:55.118Z,87.82
2018-06-11T05:37:55.070Z,88.21
2018-06-11T05:38:55.029Z,87.25
2018-06-11T05:39:54.991Z,87.82
2018-06-11T05:40:54.950Z,87.44
2018-06-11T05:41:54.952Z,87.54
2018-06-11T05:42:54.869Z,87.44
2018-06-11T05:43:54.832Z,86.96
2018-06-11T05:44:54.790Z,86.87
2018-06-11T05:45:54.748Z,86.77
2018-06-11T05:46:54.706Z,86.68
2018-06-11T05:47:54.698Z,87.10
2018-06-11T05:48:54.628Z,87.92
2018-06-11T05:49:54.585Z,87.39
2018-06-11T05:50:54.558Z,85.91
2018-06-11T05:51:54.505Z,86.62
2018-06-11T05:52:54.469Z,86.38
2018-06-11T05:53:54.422Z,86.19
2018-06-11T05:54:54.382Z,86.00
2018-06-11T05:55:54.341Z,86.48
2018-06-11T05:56:54.303Z,86.10
2018-06-11T05:57:54.260Z,86.19
2018-06-11T05:58:54.221Z,86.48
2018-06-11T05:59:54.183Z,86.68
2018-06-11T06:00:54.142Z,85.91
2018-06-11T06:01:54.099Z,86.29
2018-06-11T06:02:54.063Z,87.25
2018-06-11T06:03:54.020Z,86.58
2018-06-11T06:04:53.979Z,86.48
2018-06-11T06:05:53.943Z,86.77
2018-06-11T06:06:53.896Z,87.15
2018-06-11T06:07:53.855Z,86.48
2018-06-11T06:08:53.817Z,87.35
2018-06-11T06:09:53.775Z,86.19
2018-06-11T06:10:53.733Z,86.48
2018-06-11T06:11:53.696Z,86.96
2018-06-11T06:12:53.654Z,87.44
2018-06-11T06:13:53.612Z,87.44
2018-06-11T06:14:53.572Z,87.15
2018-06-11T06:15:53.530Z,87.44
2018-06-11T06:16:53.491Z,87.01
2018-06-11T06:17:53.450Z,86.68
2018-06-11T06:18:53.412Z,86.81
2018-06-11T06:19:53.372Z,87.39
2018-06-11T06:20:53.331Z,87.39
2018-06-11T06:21:53.290Z,86.72
2018-06-11T06:22:53.246Z,86.38
2018-06-11T06:23:53.208Z,86.05
2018-06-11T06:24:53.168Z,87.29
2018-06-11T06:25:53.129Z,87.10
2018-06-11T06:26:53.088Z,87.29
2018-06-11T06:27:53.044Z,87.58
2018-06-11T06:28:53.007Z,86.62
2018-06-11T06:29:52.974Z,87.19
2018-06-11T06:30:52.924Z,87.49
2018-06-11T06:31:52.888Z,85.85
2018-06-11T06:32:52.845Z,86.81
2018-06-11T06:33:52.806Z,87.49
2018-06-11T06:34:52.881Z,87.68
2018-06-11T06:35:52.729Z,86.43
2018-06-11T06:36:52.682Z,85.57
2018-06-11T06:37:52.649Z,86.14
2018-06-11T06:38:52.615Z,85.75
2018-06-11T06:39:52.565Z,85.95
2018-06-11T06:40:52.520Z,86.72
2018-06-11T06:41:52.479Z,86.14
2018-06-11T06:42:52.440Z,85.66
2018-06-11T06:43:52.400Z,85.95
2018-06-11T06:44:52.362Z,86.72
2018-06-11T06:45:52.317Z,85.18
2018-06-11T06:46:52.280Z,86.24
2018-06-11T06:47:52.237Z,85.37
2018-06-11T06:48:52.198Z,85.61
2018-06-11T06:49:52.158Z,86.81
2018-06-11T06:50:52.124Z,86.52
2018-06-11T06:51:52.077Z,85.80
2018-06-11T06:52:52.041Z,85.71
2018-06-11T06:53:51.999Z,86.47
2018-06-11T06:54:51.956Z,87.24
2018-06-11T06:55:51.920Z,85.32
2018-06-11T06:56:51.875Z,85.51
2018-06-11T06:57:51.838Z,85.51
2018-06-11T06:58:51.795Z,85.41
2018-06-11T06:59:51.754Z,85.71
2018-06-11T07:00:51.716Z,85.03
2018-06-11T07:01:51.677Z,85.17
2018-06-11T07:02:51.639Z,85.36
2018-06-11T07:03:51.593Z,84.50
2018-06-11T07:04:51.553Z,83.92
2018-06-11T07:05:51.515Z,84.78
2018-06-11T07:06:51.506Z,84.88
2018-06-11T07:07:51.439Z,84.59
2018-06-11T07:08:51.394Z,84.01
2018-06-11T07:09:51.357Z,84.98
2018-06-11T07:10:51.318Z,84.30
2018-06-11T07:11:51.278Z,84.11
2018-06-11T07:12:51.253Z,83.96
2018-06-11T07:13:51.203Z,84.34
2018-06-11T07:14:51.157Z,83.86
2018-06-11T07:15:51.115Z,82.90
2018-06-11T07:16:51.076Z,83.48
2018-06-11T07:17:51.033Z,82.14
2018-06-11T07:18:50.996Z,83.19
2018-06-11T07:19:50.954Z,82.61
2018-06-11T07:20:50.917Z,83.48
2018-06-11T07:21:50.874Z,82.42
2018-06-11T07:22:50.834Z,83.96
2018-06-11T07:23:50.798Z,83.29
2018-06-11T07:24:50.754Z,81.65
2018-06-11T07:25:50.714Z,82.14
2018-06-11T07:26:50.677Z,81.65
2018-06-11T07:27:50.637Z,82.23
2018-06-11T07:28:50.598Z,81.46
2018-06-11T07:29:50.556Z,82.71
2018-06-11T07:30:50.516Z,81.84
2018-06-11T07:31:50.476Z,82.14
2018-06-11T07:32:50.437Z,81.60
2018-06-11T07:33:50.402Z,81.88
2018-06-11T07:34:50.360Z,82.32
2018-06-11T07:35:50.320Z,81.21
2018-06-11T07:36:50.278Z,82.17
2018-06-11T07:37:50.241Z,81.50
2018-06-11T07:38:50.198Z,81.02
2018-06-11T07:39:50.158Z,80.92
2018-06-11T07:40:50.118Z,81.12
2018-06-11T07:41:50.084Z,80.35
2018-06-11T07:42:50.040Z,80.83
2018-06-11T07:43:49.999Z,80.19
2018-06-11T07:44:49.959Z,81.06
2018-06-11T07:45:49.923Z,80.38
2018-06-11T07:46:49.888Z,79.52
2018-06-11T07:47:49.849Z,79.56
2018-06-11T07:48:49.804Z,79.17
2018-06-11T07:49:49.767Z,79.08
2018-06-11T07:50:49.774Z,79.56
2018-06-11T07:51:49.709Z,79.46
2018-06-11T07:52:49.648Z,79.21
2018-06-11T07:53:49.606Z,79.69
2018-06-11T07:54:49.568Z,77.19
2018-06-11T07:55:49.528Z,77.58
2018-06-11T07:56:49.489Z,76.71
2018-06-11T07:57:49.450Z,76.13
2018-06-11T07:58:49.412Z,77.19
2018-06-11T07:59:49.374Z,77.71
2018-06-11T08:00:49.333Z,76.55
2018-06-11T08:01:49.295Z,75.20
2018-06-11T08:02:49.257Z,75.20
2018-06-11T08:03:49.220Z,74.33
2018-06-11T08:04:49.181Z,74.72
2018-06-11T08:05:49.140Z,74.52
2018-06-11T08:06:49.099Z,73.95
2018-06-11T08:07:49.061Z,74.33
2018-06-11T08:08:49.022Z,74.52
2018-06-11T08:09:48.982Z,74.85
2018-06-11T08:10:48.944Z,74.76
2018-06-11T08:11:48.905Z,74.37
2018-06-11T08:12:48.870Z,74.18
2018-06-11T08:13:48.828Z,73.99
2018-06-11T08:14:48.792Z,73.60
2018-06-11T08:15:48.750Z,73.50
2018-06-11T08:16:48.713Z,73.60
2018-06-11T08:17:48.674Z,73.31
2018-06-11T08:18:48.634Z,72.79
2018-06-11T08:19:48.597Z,72.63
2018-06-11T08:20:48.580Z,72.63
2018-06-11T08:21:48.519Z,72.92
2018-06-11T08:22:48.481Z,72.92
2018-06-11T08:23:48.443Z,72.44
2018-06-11T08:24:48.406Z,71.67
2018-06-11T08:25:48.367Z,72.00
2018-06-11T08:26:48.328Z,71.80
2018-06-11T08:28:48.252Z,71.22
2018-06-11T08:29:48.215Z,70.94
2018-06-11T08:30:48.174Z,71.22
2018-06-11T08:31:48.136Z,71.74
2018-06-11T08:32:48.097Z,72.32
2018-06-11T08:33:48.080Z,70.20
2018-06-11T08:34:48.021Z,70.10
2018-06-11T08:35:47.984Z,70.29
2018-06-11T08:36:47.944Z,69.52
2018-06-11T08:37:47.905Z,69.32
2018-06-11T08:38:47.872Z,68.55
2018-06-11T08:39:47.831Z,68.75
2018-06-11T08:40:47.793Z,68.46
2018-06-11T08:41:47.754Z,68.75
2018-06-11T08:42:47.715Z,68.55
2018-06-11T08:43:47.679Z,68.07
2018-06-11T08:44:47.640Z,68.30
2018-06-11T08:45:47.601Z,68.78
2018-06-11T08:46:47.567Z,68.40
2018-06-11T08:47:47.529Z,68.20
2018-06-11T08:48:47.489Z,69.17
2018-06-11T08:49:47.452Z,67.24
2018-06-11T08:50:47.412Z,67.33
2018-06-11T08:51:47.374Z,68.68
2018-06-11T08:52:47.336Z,68.24
2018-06-11T08:53:47.301Z,67.08
2018-06-11T08:54:47.261Z,66.88
2018-06-11T08:55:47.226Z,66.50
2018-06-11T08:56:47.187Z,67.17
2018-06-11T08:57:47.153Z,66.40
2018-06-11T08:58:47.115Z,66.78
2018-06-11T08:59:47.082Z,66.63
2018-06-11T09:00:47.038Z,66.14
2018-06-11T09:01:47.002Z,67.59
2018-06-11T09:02:46.961Z,66.82
2018-06-11T09:03:46.922Z,66.08
2018-06-11T09:04:46.886Z,65.69
2018-06-11T09:05:46.847Z,64.82
2018-06-11T09:06:46.810Z,64.62
2018-06-11T09:07:46.774Z,63.76
2018-06-11T09:08:46.736Z,64.17
2018-06-11T09:09:46.703Z,63.37
2018-06-11T09:10:46.664Z,64.04
2018-06-11T09:11:46.622Z,64.24
2018-06-11T09:12:46.587Z,63.95
2018-06-11T09:13:46.547Z,64.04
2018-06-11T09:14:46.513Z,64.24
2018-06-11T09:15:46.476Z,64.53
2018-06-11T09:16:46.436Z,64.34
2018-06-11T09:17:46.401Z,63.46
2018-06-11T09:18:46.364Z,63.66
2018-06-11T09:19:46.325Z,63.95
2018-06-11T09:20:46.288Z,64.59
2018-06-11T09:21:46.249Z,63.82
2018-06-11T09:22:46.214Z,64.24
2018-06-11T09:23:46.176Z,64.72
2018-06-11T09:24:46.139Z,65.40
2018-06-11T09:25:46.101Z,66.27
2018-06-11T09:26:46.066Z,64.82
2018-06-11T09:27:46.029Z,63.37
2018-06-11T09:28:45.990Z,63.56
2018-06-11T09:29:45.955Z,63.66
2018-06-11T09:30:45.922Z,62.40
2018-06-11T09:31:48.084Z,62.30
2018-06-11T09:32:45.843Z,63.79
2018-06-11T09:33:45.807Z,63.49
2018-06-11T09:34:45.784Z,64.07
2018-06-11T09:35:45.737Z,62.92
2018-06-11T09:36:45.696Z,62.43
2018-06-11T09:37:45.659Z,63.53
2018-06-11T09:38:45.624Z,63.34
2018-06-11T09:39:45.582Z,62.46
2018-06-11T09:40:45.547Z,62.56
2018-06-11T09:41:45.510Z,62.40
2018-06-11T09:42:45.471Z,61.14
2018-06-11T09:43:45.520Z,60.85
2018-06-11T09:44:45.401Z,61.91
2018-06-11T09:45:45.360Z,61.14
2018-06-11T09:46:45.327Z,59.39
2018-06-11T09:47:45.289Z,60.65
2018-06-11T09:48:45.254Z,60.27
2018-06-11T09:49:45.214Z,59.97
2018-06-11T09:50:45.181Z,60.46
2018-06-11T09:51:45.141Z,59.88
2018-06-11T09:52:45.106Z,59.71
2018-06-11T09:53:45.067Z,60.00
2018-06-11T09:54:45.034Z,59.03
2018-06-11T09:55:45.002Z,59.52
2018-06-11T09:56:44.965Z,59.23
2018-06-11T09:57:44.931Z,59.33
2018-06-11T09:58:44.899Z,59.23
2018-06-11T09:59:44.851Z,58.65
2018-06-11T10:00:44.816Z,57.97
2018-06-11T10:01:44.780Z,57.48
2018-06-11T10:02:44.741Z,57.00
2018-06-11T10:03:44.712Z,56.81
2018-06-11T10:04:44.674Z,57.39
2018-06-11T10:05:44.634Z,57.29
2018-06-11T10:06:44.597Z,57.39
2018-06-11T10:07:44.568Z,57.78
2018-06-11T10:08:44.523Z,58.36
2018-06-11T10:09:44.488Z,58.48
2018-06-11T10:10:44.452Z,57.51
2018-06-11T10:11:44.416Z,56.15
2018-06-11T10:12:44.381Z,56.15
2018-06-11T10:13:44.343Z,55.67
2018-06-11T10:14:44.314Z,56.25
2018-06-11T10:15:44.271Z,56.37
2018-06-11T10:16:44.238Z,56.18
2018-06-11T10:17:44.205Z,55.60
2018-06-11T10:18:44.164Z,55.21
2018-06-11T10:19:44.133Z,57.06
2018-06-11T10:20:44.094Z,56.28
2018-06-11T10:22:44.023Z,55.14
2018-06-11T10:23:43.984Z,54.07
2018-06-11T10:24:43.948Z,54.66
2018-06-11T10:25:43.912Z,53.49
2018-06-11T10:26:43.882Z,53.59
2018-06-11T10:27:43.847Z,52.72
2018-06-11T10:28:43.803Z,52.91
2018-06-11T10:29:43.772Z,53.49
2018-06-11T10:30:43.734Z,52.81
2018-06-11T10:31:43.696Z,53.69
2018-06-11T10:32:48.468Z,52.81
2018-06-11T10:33:43.625Z,51.09
2018-06-11T10:34:43.589Z,52.45
2018-06-11T10:35:43.555Z,52.42
2018-06-11T10:36:43.521Z,50.99
2018-06-11T10:37:43.482Z,52.45
2018-06-11T10:38:43.448Z,52.06
2018-06-11T10:39:43.414Z,51.57
2018-06-11T10:40:43.377Z,52.06
2018-06-11T10:41:43.341Z,52.15
2018-06-11T10:42:43.315Z,52.84
2018-06-11T10:43:43.277Z,53.93
2018-06-11T10:44:43.237Z,51.79
2018-06-11T10:45:43.201Z,52.28
2018-06-11T10:46:43.166Z,51.60
2018-06-11T10:47:43.129Z,49.46
2018-06-11T10:48:43.092Z,49.66
2018-06-11T10:49:43.059Z,49.56
2018-06-11T10:50:43.022Z,51.72
2018-06-11T10:51:42.989Z,50.75
2018-06-11T10:52:42.950Z,50.36
2018-06-11T10:53:42.916Z,49.58
2018-06-11T10:54:42.881Z,49.87
2018-06-11T10:55:42.848Z,49.78
2018-06-11T10:56:42.812Z,49.29
2018-06-11T10:57:42.780Z,49.58
2018-06-11T10:58:42.747Z,49.58
2018-06-11T10:59:42.710Z,50.36
2018-06-11T11:00:42.670Z,49.68
2018-06-11T11:01:42.633Z,50.26
2018-06-11T11:02:42.597Z,48.61
2018-06-11T11:03:42.565Z,48.90
2018-06-11T11:04:42.530Z,48.41
2018-06-11T11:05:42.493Z,48.90
2018-06-11T11:06:42.461Z,49.39
2018-06-11T11:07:42.480Z,50.38
2018-06-11T11:08:42.394Z,48.54
2018-06-11T11:09:42.353Z,47.96
2018-06-11T11:10:42.322Z,47.96
2018-06-11T11:11:42.284Z,48.93
2018-06-11T11:12:42.250Z,47.86
2018-06-11T11:13:42.213Z,46.88
2018-06-11T11:14:42.182Z,47.27
2018-06-11T11:15:42.142Z,46.61
2018-06-11T11:16:42.113Z,48.05
2018-06-11T11:17:42.072Z,46.11
2018-06-11T11:18:42.052Z,47.78
2018-06-11T11:19:42.004Z,46.23
2018-06-11T11:20:41.970Z,47.98
2018-06-11T11:21:41.933Z,46.91
2018-06-11T11:22:41.902Z,47.88
2018-06-11T11:23:41.866Z,48.19
2018-06-11T11:24:41.829Z,47.42
2018-06-11T11:25:41.793Z,46.83
2018-06-11T11:26:41.760Z,46.83
2018-06-11T11:27:41.726Z,46.64
2018-06-11T11:28:41.693Z,45.49
2018-06-11T11:29:41.674Z,46.66
2018-06-11T11:30:41.625Z,46.47
2018-06-11T11:31:41.587Z,46.47
2018-06-11T11:32:41.551Z,46.17
2018-06-11T11:33:41.532Z,46.08
2018-06-11T11:34:41.482Z,46.20
2018-06-11T11:35:41.449Z,45.61
2018-06-11T11:36:41.419Z,44.73
2018-06-11T11:37:41.383Z,45.71
2018-06-11T11:38:41.343Z,44.83
2018-06-11T11:39:41.341Z,43.76
2018-06-11T11:40:41.279Z,44.66
2018-06-11T11:41:41.243Z,45.64
2018-06-11T11:42:41.208Z,46.92
2018-06-11T11:43:41.174Z,46.63
2018-06-11T11:44:41.139Z,44.48
2018-06-11T11:45:41.104Z,44.19
2018-06-11T11:46:41.074Z,43.32
2018-06-11T11:47:41.036Z,44.58
2018-06-11T11:48:41.004Z,43.32
2018-06-11T11:49:40.969Z,42.83
2018-06-11T11:50:40.939Z,42.65
2018-06-11T11:51:40.903Z,43.43
2018-06-11T11:52:40.867Z,42.09
2018-06-11T11:53:40.840Z,41.89
2018-06-11T11:54:40.802Z,42.09
2018-06-11T11:55:40.773Z,40.72
2018-06-11T11:56:40.735Z,40.84
2018-06-11T11:57:40.699Z,40.06
2018-06-11T11:58:40.671Z,40.06
2018-06-11T11:59:40.633Z,42.01
2018-06-11T12:00:40.610Z,39.59
2018-06-11T12:01:40.572Z,40.58
2018-06-11T12:02:40.535Z,40.88
2018-06-11T12:03:40.502Z,39.33
2018-06-11T12:04:40.465Z,39.54
2018-06-11T12:05:40.450Z,39.06
2018-06-11T12:06:40.399Z,38.59
2018-06-11T12:07:40.430Z,38.00
2018-06-11T12:08:40.333Z,38.00
2018-06-11T12:09:40.308Z,38.51
2018-06-11T12:10:40.268Z,37.23
2018-06-11T12:11:40.235Z,37.52
2018-06-11T12:12:40.201Z,37.25
2018-06-11T12:13:40.170Z,35.39
2018-06-11T12:14:40.157Z,34.90
2018-06-11T12:15:40.107Z,35.78
2018-06-11T12:16:40.075Z,35.02
2018-06-11T12:17:40.039Z,34.81
2018-06-11T12:18:40.009Z,35.70
2018-06-11T12:19:39.978Z,35.13
2018-06-11T12:20:39.944Z,35.11
2018-06-11T12:21:39.918Z,34.13
2018-06-11T12:22:39.880Z,34.74
2018-06-11T12:23:39.850Z,35.33
2018-06-11T12:24:39.823Z,34.64
2018-06-11T12:25:39.784Z,34.16
2018-06-11T12:26:39.760Z,34.26
2018-06-11T12:27:39.725Z,33.89
2018-06-11T12:28:39.693Z,33.91
2018-06-11T12:29:39.687Z,33.92
2018-06-11T12:30:39.628Z,33.33
2018-06-11T12:31:39.600Z,32.24
2018-06-11T12:32:39.566Z,31.28
2018-06-11T12:33:39.535Z,31.77
2018-06-11T12:34:39.505Z,31.98
2018-06-11T12:35:39.477Z,30.91
2018-06-11T12:36:39.447Z,30.52
2018-06-11T12:37:39.418Z,31.13
2018-06-11T12:38:39.391Z,30.94
2018-06-11T12:39:39.378Z,30.35
2018-06-11T12:40:39.322Z,30.47
2018-06-11T12:41:39.290Z,30.68
2018-06-11T12:42:39.265Z,30.20
2018-06-11T12:43:39.240Z,30.21
2018-06-11T12:44:39.205Z,28.53
2018-06-11T12:45:39.171Z,28.65
2018-06-11T12:46:39.149Z,27.67
2018-06-11T12:47:39.187Z,27.59
2018-06-11T12:48:39.082Z,27.59
2018-06-11T12:49:39.052Z,27.00
2018-06-11T12:50:39.024Z,26.40
2018-06-11T12:51:39.072Z,26.02
2018-06-11T12:52:38.967Z,26.43
2018-06-11T12:53:38.935Z,26.33
2018-06-11T12:54:38.918Z,25.35